Rossett, United Kingdom
Current Conditions -  °F | °C
As of 5:20 PM on Friday 24 Oct 2014 (Local Time) from EGNR Reporting Station
Few Clouds Few Clouds  
Wind Chill: 55°   Ceiling: Unl
Heat Index: 55°   Visibility: 6mi
Dew Point: 43°   Wind: 3mph
Humidity: 63%   Direction: 260°W
Pressure: 29.88"   Gusts: NA
Location:  53.11°N, 2.94°W
Report Text: EGNR 241620Z 26003KT 9999 FEW040 13/06 Q1012
Loading
Personal Weather Stations






























Interactive Weather Map
Tropical Storm Tracking
New forecast layout! Learn more

10-Day Weather Forecast

Advertisements
Track Severe Weather on mobile